Time;durP1;ratioP1;P1;durP2;ratioP2;P2;SDS_P1;SDS_P2;PMS_P1;PMS_P2;Temp;Humidity;BMP_temperature;BMP_pressure;BME280_temperature;BME280_humidity;BME280_pressure;Samples;Min_cycle;Max_cycle;Signal;HPM_P1;HPM_P2
2022/06/21 00:00:40;;;;;;;8.15;2.60;;;;;;;;;;5012629;28;20183;-70
2022/06/21 00:03:08;;;;;;;6.22;2.38;;;;;;;;;;5003738;28;20230;-70
2022/06/21 00:05:41;;;;;;;6.75;2.35;;;;;;;;;;5000475;28;20293;-70
2022/06/21 00:08:16;;;;;;;7.88;2.42;;;;;;;;;;5007257;28;20182;-70
2022/06/21 00:10:42;;;;;;;6.65;2.55;;;;;;;;;;5006702;28;20203;-69
2022/06/21 00:13:11;;;;;;;6.63;2.90;;;;;;;;;;5007284;28;20253;-70
2022/06/21 00:15:37;;;;;;;6.63;2.58;;;;;;;;;;5007415;28;20253;-70
2022/06/21 00:18:03;;;;;;;5.72;2.50;;;;;;;;;;5008739;28;20262;-70
2022/06/21 00:20:28;;;;;;;5.57;2.55;;;;;;;;;;4992851;28;20245;-70
2022/06/21 00:22:53;;;;;;;7.22;2.75;;;;;;;;;;5006243;28;20182;-70
2022/06/21 00:25:24;;;;;;;6.13;2.65;;;;;;;;;;5004767;28;20187;-70
2022/06/21 00:27:51;;;;;;;3.55;2.72;;;;;;;;;;5001502;28;20542;-71
2022/06/21 00:30:17;;;;;;;6.90;3.03;;;;;;;;;;4997643;28;20190;-70
2022/06/21 00:32:44;;;;;;;8.70;3.15;;;;;;;;;;5006350;28;20191;-70
2022/06/21 00:35:13;;;;;;;7.75;2.70;;;;;;;;;;5007753;28;20651;-70
2022/06/21 00:37:39;;;;;;;5.68;2.50;;;;;;;;;;5007275;28;20171;-70
2022/06/21 00:40:17;;;;;;;4.35;3.10;;;;;;;;;;5000426;28;20650;-70
2022/06/21 00:42:44;;;;;;;6.95;2.80;;;;;;;;;;5003446;28;20171;-70
2022/06/21 00:45:20;;;;;;;5.95;2.60;;;;;;;;;;5015985;28;20174;-70
2022/06/21 00:47:51;;;;;;;5.60;2.50;;;;;;;;;;5002412;28;20185;-70
2022/06/21 00:50:23;;;;;;;5.50;2.78;;;;;;;;;;5003299;28;20243;-70
2022/06/21 00:52:58;;;;;;;5.57;2.70;;;;;;;;;;5011637;28;20186;-71
2022/06/21 00:55:47;;;;;;;5.45;2.88;;;;;;;;;;5011540;28;20501;-71
2022/06/21 00:58:14;;;;;;;4.47;2.90;;;;;;;;;;5011044;28;20243;-70
2022/06/21 01:01:01;;;;;;;7.03;3.10;;;;;;;;;;5014677;28;20202;-70
2022/06/21 01:03:39;;;;;;;7.75;3.13;;;;;;;;;;5006049;28;20190;-70
2022/06/21 01:06:18;;;;;;;9.43;3.05;;;;;;;;;;5016760;28;20182;-70
2022/06/21 01:08:47;;;;;;;7.32;3.17;;;;;;;;;;5014131;28;20195;-70
2022/06/21 01:11:25;;;;;;;5.93;2.92;;;;;;;;;;5006942;28;20697;-69
2022/06/21 01:13:53;;;;;;;7.65;3.10;;;;;;;;;;4997598;28;20178;-70
2022/06/21 01:16:20;;;;;;;7.75;3.00;;;;;;;;;;5007803;28;20243;-69
2022/06/21 01:18:46;;;;;;;6.18;3.20;;;;;;;;;;5009414;28;20189;-69
2022/06/21 01:21:15;;;;;;;10.25;3.72;;;;;;;;;;4994298;28;20217;-69
2022/06/21 01:24:04;;;;;;;6.13;3.30;;;;;;;;;;5022658;28;20185;-69
2022/06/21 01:26:42;;;;;;;7.97;3.03;;;;;;;;;;5010172;28;20238;-70
2022/06/21 01:29:18;;;;;;;6.25;3.05;;;;;;;;;;5006309;28;20185;-70
2022/06/21 01:31:44;;;;;;;8.15;3.28;;;;;;;;;;5004477;28;20282;-70
2022/06/21 01:34:22;;;;;;;9.38;3.42;;;;;;;;;;5009073;28;20237;-69
2022/06/21 01:36:52;;;;;;;8.07;3.22;;;;;;;;;;5032368;28;20180;-70
2022/06/21 01:39:23;;;;;;;5.55;3.28;;;;;;;;;;5033913;28;20190;-70
2022/06/21 01:42:00;;;;;;;7.32;3.13;;;;;;;;;;5002492;28;20266;-70
2022/06/21 01:44:30;;;;;;;8.15;3.10;;;;;;;;;;5003982;28;20229;-70
2022/06/21 01:46:56;;;;;;;4.78;2.97;;;;;;;;;;5000407;28;20700;-70
2022/06/21 01:49:26;;;;;;;5.57;2.60;;;;;;;;;;5009559;28;20577;-70
2022/06/21 01:52:01;;;;;;;8.05;3.15;;;;;;;;;;5007018;28;20213;-70
2022/06/21 01:54:30;;;;;;;6.82;3.20;;;;;;;;;;5011665;28;20190;-70
2022/06/21 01:56:56;;;;;;;11.32;3.30;;;;;;;;;;5002565;28;20171;-70
2022/06/21 01:59:46;;;;;;;6.00;2.83;;;;;;;;;;5009806;28;20189;-70
2022/06/21 02:02:17;;;;;;;3.95;2.90;;;;;;;;;;5012655;28;20604;-69
2022/06/21 02:04:52;;;;;;;6.25;2.80;;;;;;;;;;5017838;28;20189;-71
2022/06/21 02:07:24;;;;;;;6.82;3.25;;;;;;;;;;5015140;28;20637;-71
2022/06/21 02:10:04;;;;;;;7.93;3.33;;;;;;;;;;5014178;28;20213;-70
2022/06/21 02:12:31;;;;;;;7.20;2.83;;;;;;;;;;5012438;28;20209;-70
2022/06/21 02:15:00;;;;;;;7.03;3.13;;;;;;;;;;5006912;28;20257;-70
2022/06/21 02:17:32;;;;;;;9.70;3.10;;;;;;;;;;5004627;28;20191;-70
2022/06/21 02:20:11;;;;;;;4.45;3.35;;;;;;;;;;5012443;28;20187;-70
2022/06/21 02:22:37;;;;;;;6.15;3.28;;;;;;;;;;5002265;28;20378;-70
2022/06/21 02:25:03;;;;;;;6.88;3.60;;;;;;;;;;5008493;28;20197;-70
2022/06/21 02:27:35;;;;;;;10.95;3.45;;;;;;;;;;5005522;28;20240;-70
2022/06/21 02:30:03;;;;;;;7.05;3.50;;;;;;;;;;5014782;28;20186;-70
2022/06/21 02:32:37;;;;;;;7.95;3.45;;;;;;;;;;5012762;28;20199;-70
2022/06/21 02:35:11;;;;;;;6.88;3.67;;;;;;;;;;5004893;28;20184;-70
2022/06/21 02:37:37;;;;;;;6.13;3.13;;;;;;;;;;5010814;28;20179;-69
2022/06/21 02:40:05;;;;;;;7.28;3.00;;;;;;;;;;5023074;28;20199;-69
2022/06/21 02:42:33;;;;;;;7.25;3.28;;;;;;;;;;5011079;28;20514;-69
2022/06/21 02:45:14;;;;;;;4.05;2.67;;;;;;;;;;5010116;28;20734;-69
2022/06/21 02:47:44;;;;;;;5.93;3.20;;;;;;;;;;5010133;28;20210;-68
2022/06/21 02:50:56;;;;;;;8.10;3.28;;;;;;;;;;5007146;28;20206;-68
2022/06/21 02:53:32;;;;;;;4.50;2.92;;;;;;;;;;4912551;29;20186;-70
2022/06/21 02:56:20;;;;;;;6.22;3.00;;;;;;;;;;5002290;28;20198;-70
2022/06/21 02:58:53;;;;;;;5.53;3.33;;;;;;;;;;5013678;28;20283;-69
2022/06/21 03:01:28;;;;;;;4.43;3.05;;;;;;;;;;5008980;28;20190;-71
2022/06/21 03:03:53;;;;;;;6.80;2.80;;;;;;;;;;5007614;28;20544;-70
2022/06/21 03:06:20;;;;;;;4.07;3.20;;;;;;;;;;5013174;28;20236;-70
2022/06/21 03:09:06;;;;;;;4.55;3.00;;;;;;;;;;5019135;28;20233;-69
2022/06/21 03:11:41;;;;;;;6.10;3.08;;;;;;;;;;5011370;28;20202;-69
2022/06/21 03:14:13;;;;;;;7.68;2.97;;;;;;;;;;4998323;28;20529;-69
2022/06/21 03:16:40;;;;;;;4.03;3.28;;;;;;;;;;5008373;28;20257;-69
2022/06/21 03:19:14;;;;;;;6.60;3.30;;;;;;;;;;4997375;28;20179;-69
2022/06/21 03:21:40;;;;;;;4.68;2.70;;;;;;;;;;5019342;28;20200;-69
2022/06/21 03:24:15;;;;;;;5.30;2.75;;;;;;;;;;5028189;28;20643;-69
2022/06/21 03:26:44;;;;;;;7.85;2.65;;;;;;;;;;5008693;28;20228;-69
2022/06/21 03:29:10;;;;;;;5.13;2.97;;;;;;;;;;5016119;28;20189;-70
2022/06/21 03:31:39;;;;;;;7.22;2.85;;;;;;;;;;5004358;28;20222;-69
2022/06/21 03:34:09;;;;;;;6.85;3.10;;;;;;;;;;5012136;28;20171;-69
2022/06/21 03:36:35;;;;;;;6.45;2.95;;;;;;;;;;5010547;28;20198;-70
2022/06/21 03:39:05;;;;;;;6.80;2.80;;;;;;;;;;5010428;28;20215;-69
2022/06/21 03:41:43;;;;;;;4.97;2.97;;;;;;;;;;5019797;28;20178;-69
2022/06/21 03:44:20;;;;;;;5.28;3.13;;;;;;;;;;5012147;28;20175;-69
2022/06/21 03:47:04;;;;;;;7.70;3.05;;;;;;;;;;5004517;28;20651;-69
2022/06/21 03:49:38;;;;;;;7.65;3.10;;;;;;;;;;5001125;28;20242;-69
2022/06/21 03:52:09;;;;;;;3.28;2.83;;;;;;;;;;5008921;28;20195;-69
2022/06/21 03:54:41;;;;;;;6.68;3.55;;;;;;;;;;5018119;28;20174;-69
2022/06/21 03:57:21;;;;;;;4.55;3.35;;;;;;;;;;5013091;28;20183;-69
2022/06/21 04:00:06;;;;;;;9.00;3.55;;;;;;;;;;5001149;28;20183;-69
2022/06/21 04:02:33;;;;;;;5.63;3.42;;;;;;;;;;5005459;28;20832;-70
2022/06/21 04:05:16;;;;;;;7.15;3.60;;;;;;;;;;5005459;28;20208;-70
2022/06/21 04:08:03;;;;;;;7.70;4.30;;;;;;;;;;5004478;28;20666;-70
2022/06/21 04:10:51;;;;;;;7.45;4.57;;;;;;;;;;5010805;28;20189;-70
2022/06/21 04:14:01;;;;;;;5.95;4.07;;;;;;;;;;5004224;28;20200;-70
2022/06/21 04:16:35;;;;;;;9.02;3.75;;;;;;;;;;4970777;28;20210;-68
2022/06/21 04:19:07;;;;;;;9.70;4.43;;;;;;;;;;5008230;28;20174;-69
2022/06/21 04:21:38;;;;;;;5.40;4.25;;;;;;;;;;5008434;28;20241;-69
2022/06/21 04:24:19;;;;;;;8.65;4.50;;;;;;;;;;5010003;28;20514;-69
2022/06/21 04:26:53;;;;;;;10.50;4.30;;;;;;;;;;5011256;28;20218;-69
2022/06/21 04:29:38;;;;;;;7.30;4.95;;;;;;;;;;5015025;28;20665;-69
2022/06/21 04:32:06;;;;;;;5.68;4.47;;;;;;;;;;5010149;28;20211;-70
2022/06/21 04:34:52;;;;;;;7.07;4.90;;;;;;;;;;5009916;28;20248;-70
2022/06/21 04:37:31;;;;;;;6.38;4.75;;;;;;;;;;5005670;28;20182;-69
2022/06/21 04:40:02;;;;;;;8.38;4.78;;;;;;;;;;5005407;28;20191;-71
2022/06/21 04:42:43;;;;;;;10.05;4.90;;;;;;;;;;5010715;28;20174;-70
2022/06/21 04:45:25;;;;;;;6.97;3.58;;;;;;;;;;5008238;28;20178;-70
2022/06/21 04:48:22;;;;;;;9.90;4.22;;;;;;;;;;5009151;28;20202;-70
2022/06/21 04:51:02;;;;;;;8.50;3.95;;;;;;;;;;5002131;28;20717;-69
2022/06/21 04:53:46;;;;;;;6.63;3.67;;;;;;;;;;5004781;28;20224;-70
2022/06/21 04:56:36;;;;;;;8.00;3.92;;;;;;;;;;5005094;28;20576;-70
2022/06/21 04:59:04;;;;;;;10.00;4.20;;;;;;;;;;4996126;28;20186;-70
2022/06/21 05:01:29;;;;;;;7.07;4.00;;;;;;;;;;5007776;28;20588;-71
2022/06/21 05:03:58;;;;;;;7.75;4.10;;;;;;;;;;5011655;28;20288;-69
2022/06/21 05:06:24;;;;;;;11.13;4.85;;;;;;;;;;5009138;28;20546;-70
2022/06/21 05:08:50;;;;;;;11.23;4.90;;;;;;;;;;5037259;28;20171;-70
2022/06/21 05:11:17;;;;;;;7.68;5.05;;;;;;;;;;5013120;28;20290;-70
2022/06/21 05:13:46;;;;;;;10.25;5.35;;;;;;;;;;5006005;28;20207;-70
2022/06/21 05:16:17;;;;;;;9.23;5.43;;;;;;;;;;5016108;28;20178;-70
2022/06/21 05:18:49;;;;;;;10.23;5.80;;;;;;;;;;5004701;28;20187;-70
2022/06/21 05:21:20;;;;;;;14.43;6.13;;;;;;;;;;5004053;28;20184;-71
2022/06/21 05:23:47;;;;;;;12.65;5.72;;;;;;;;;;4990196;28;20171;-70
2022/06/21 05:26:43;;;;;;;9.15;5.43;;;;;;;;;;5005774;28;20183;-70
2022/06/21 05:29:38;;;;;;;11.02;5.90;;;;;;;;;;5007878;28;20178;-70
2022/06/21 05:32:10;;;;;;;12.93;5.70;;;;;;;;;;5001119;28;20257;-69
2022/06/21 05:34:42;;;;;;;9.98;5.78;;;;;;;;;;5000555;28;20655;-69
2022/06/21 05:37:22;;;;;;;11.85;5.60;;;;;;;;;;5009597;28;20179;-70
2022/06/21 05:39:50;;;;;;;9.77;4.85;;;;;;;;;;5001616;28;20671;-69
2022/06/21 05:42:19;;;;;;;9.20;4.60;;;;;;;;;;5011543;28;20567;-70
2022/06/21 05:44:53;;;;;;;9.93;4.78;;;;;;;;;;5008766;28;20175;-70
2022/06/21 05:47:26;;;;;;;13.80;4.97;;;;;;;;;;5002704;28;20180;-69
2022/06/21 05:49:52;;;;;;;10.77;4.82;;;;;;;;;;5003409;28;20245;-71
2022/06/21 05:52:25;;;;;;;5.80;4.00;;;;;;;;;;4999919;28;20284;-70
2022/06/21 05:55:07;;;;;;;13.55;4.90;;;;;;;;;;5013706;28;20269;-69
2022/06/21 05:57:46;;;;;;;13.05;4.78;;;;;;;;;;5002117;28;20604;-70
2022/06/21 06:00:39;;;;;;;10.63;4.78;;;;;;;;;;5005829;28;20454;-71
2022/06/21 06:03:22;;;;;;;11.30;4.65;;;;;;;;;;5004043;28;20253;-70
2022/06/21 06:05:49;;;;;;;13.32;4.93;;;;;;;;;;5032015;28;20194;-70
2022/06/21 06:08:21;;;;;;;12.18;4.30;;;;;;;;;;5005619;28;20181;-70
2022/06/21 06:10:47;;;;;;;9.80;3.97;;;;;;;;;;5004928;28;20206;-70
2022/06/21 06:13:18;;;;;;;10.93;4.10;;;;;;;;;;5001874;28;20214;-70
2022/06/21 06:15:49;;;;;;;8.40;4.18;;;;;;;;;;5008200;28;20580;-70
2022/06/21 06:18:28;;;;;;;12.65;3.33;;;;;;;;;;5004607;28;20176;-70
2022/06/21 06:21:16;;;;;;;7.28;3.13;;;;;;;;;;5007936;28;20237;-70
2022/06/21 06:23:57;;;;;;;9.25;2.22;;;;;;;;;;5005821;28;20252;-70
2022/06/21 06:26:30;;;;;;;4.03;2.60;;;;;;;;;;5009416;28;20248;-71
2022/06/21 06:29:05;;;;;;;6.53;2.65;;;;;;;;;;5022814;28;20225;-70
2022/06/21 06:31:53;;;;;;;6.57;2.97;;;;;;;;;;5004820;28;20398;-71
2022/06/21 06:34:28;;;;;;;6.07;2.10;;;;;;;;;;5000229;28;20307;-71
2022/06/21 06:37:06;;;;;;;9.30;2.97;;;;;;;;;;5004536;28;20596;-70
2022/06/21 06:39:34;;;;;;;14.57;2.90;;;;;;;;;;5005899;28;20229;-70
2022/06/21 06:42:08;;;;;;;8.10;2.30;;;;;;;;;;5011515;28;20636;-70
2022/06/21 06:44:46;;;;;;;6.85;2.20;;;;;;;;;;5010371;28;20574;-69
2022/06/21 06:47:33;;;;;;;14.65;3.35;;;;;;;;;;5009061;28;20579;-69
2022/06/21 06:50:12;;;;;;;8.88;3.35;;;;;;;;;;5003543;28;20195;-69
2022/06/21 06:52:55;;;;;;;9.25;3.10;;;;;;;;;;5012011;28;20203;-69
2022/06/21 06:55:51;;;;;;;6.15;3.30;;;;;;;;;;4997257;28;20520;-69
2022/06/21 06:58:28;;;;;;;9.63;3.00;;;;;;;;;;5006111;28;20183;-69
2022/06/21 07:00:58;;;;;;;7.75;2.75;;;;;;;;;;5001096;28;20186;-70
2022/06/21 07:03:30;;;;;;;7.28;3.08;;;;;;;;;;5009503;28;20600;-70
2022/06/21 07:06:20;;;;;;;15.05;2.95;;;;;;;;;;4996743;28;20251;-70
2022/06/21 07:09:04;;;;;;;9.05;2.63;;;;;;;;;;5008936;28;20195;-69
2022/06/21 07:11:39;;;;;;;5.78;2.45;;;;;;;;;;5014727;28;20230;-70
2022/06/21 07:14:12;;;;;;;7.88;2.30;;;;;;;;;;5007236;28;20872;-70
2022/06/21 07:16:38;;;;;;;9.60;2.60;;;;;;;;;;4998896;28;20187;-69
2022/06/21 07:19:04;;;;;;;9.57;2.65;;;;;;;;;;5010626;28;20527;-68
2022/06/21 07:21:33;;;;;;;7.05;2.10;;;;;;;;;;5009774;28;20265;-69
2022/06/21 07:23:59;;;;;;;11.60;2.83;;;;;;;;;;5013827;28;20167;-69
2022/06/21 07:26:33;;;;;;;4.18;1.90;;;;;;;;;;5008872;28;20175;-69
2022/06/21 07:29:09;;;;;;;8.35;2.28;;;;;;;;;;5014651;28;20269;-69
2022/06/21 07:31:43;;;;;;;6.82;1.80;;;;;;;;;;5007560;28;20227;-70
2022/06/21 07:34:15;;;;;;;9.18;2.55;;;;;;;;;;5039796;28;20589;-68
2022/06/21 07:36:51;;;;;;;6.35;2.55;;;;;;;;;;5006772;28;20197;-69
2022/06/21 07:39:25;;;;;;;7.72;2.92;;;;;;;;;;5007146;28;20182;-69
2022/06/21 07:41:57;;;;;;;5.72;2.60;;;;;;;;;;5007755;28;20209;-70
2022/06/21 07:44:33;;;;;;;9.90;2.70;;;;;;;;;;5010018;28;20263;-70
2022/06/21 07:47:05;;;;;;;7.13;2.83;;;;;;;;;;5009114;28;20566;-69
2022/06/21 07:50:02;;;;;;;6.10;2.72;;;;;;;;;;5006357;28;20214;-69
2022/06/21 07:52:33;;;;;;;6.40;2.70;;;;;;;;;;5009274;28;20207;-70
2022/06/21 07:55:23;;;;;;;6.97;2.67;;;;;;;;;;5010548;28;20181;-66
2022/06/21 07:57:59;;;;;;;6.82;2.10;;;;;;;;;;4994660;28;20206;-65
2022/06/21 08:06:40;;;;;;;7.60;2.70;;;;;;;;;;5004580;28;20175;-70
2022/06/21 08:09:21;;;;;;;5.22;1.65;;;;;;;;;;5002118;28;20221;-69
2022/06/21 08:11:48;;;;;;;7.65;1.90;;;;;;;;;;5003026;28;20202;-70
2022/06/21 08:14:15;;;;;;;7.57;1.83;;;;;;;;;;5007907;28;20196;-70
2022/06/21 08:16:51;;;;;;;4.68;1.80;;;;;;;;;;5003979;28;20251;-70
2022/06/21 08:19:36;;;;;;;5.63;1.52;;;;;;;;;;5009932;28;20612;-71
2022/06/21 08:22:09;;;;;;;3.88;1.63;;;;;;;;;;5020204;28;20433;-70
2022/06/21 08:24:50;;;;;;;4.38;1.55;;;;;;;;;;5004652;28;20167;-67
2022/06/21 08:27:30;;;;;;;5.97;1.50;;;;;;;;;;5000227;28;20246;-69
2022/06/21 08:29:58;;;;;;;5.95;1.45;;;;;;;;;;5002227;28;20214;-70
2022/06/21 08:32:38;;;;;;;5.70;1.50;;;;;;;;;;5009211;28;20294;-71
2022/06/21 08:35:29;;;;;;;4.38;1.20;;;;;;;;;;5008153;28;20186;-71
2022/06/21 08:38:03;;;;;;;4.75;1.25;;;;;;;;;;4999002;28;20256;-71
2022/06/21 08:40:58;;;;;;;6.80;1.55;;;;;;;;;;5010073;28;20170;-71
2022/06/21 08:43:55;;;;;;;4.05;1.45;;;;;;;;;;5010031;28;20233;-71
2022/06/21 08:46:33;;;;;;;3.10;1.00;;;;;;;;;;4995302;28;20191;-69
2022/06/21 08:49:27;;;;;;;3.45;1.00;;;;;;;;;;4997624;28;20198;-72
2022/06/21 08:52:32;;;;;;;3.28;1.05;;;;;;;;;;5003569;28;20196;-71
2022/06/21 08:55:15;;;;;;;6.00;1.20;;;;;;;;;;5000897;28;20480;-71
2022/06/21 08:58:07;;;;;;;2.90;1.00;;;;;;;;;;4995970;28;20179;-69
2022/06/21 09:00:48;;;;;;;6.00;0.98;;;;;;;;;;5007745;28;20492;-70
2022/06/21 09:04:04;;;;;;;5.03;1.10;;;;;;;;;;5003189;28;20704;-71
2022/06/21 09:06:45;;;;;;;6.10;1.10;;;;;;;;;;5009127;28;20187;-70
2022/06/21 09:09:24;;;;;;;6.88;1.17;;;;;;;;;;5026477;28;20228;-71
2022/06/21 09:12:07;;;;;;;6.18;1.00;;;;;;;;;;4998452;28;20363;-70
2022/06/21 09:14:38;;;;;;;6.18;0.98;;;;;;;;;;5000653;28;20191;-72
2022/06/21 09:17:35;;;;;;;4.28;1.00;;;;;;;;;;5003815;28;20569;-70
2022/06/21 09:20:32;;;;;;;2.53;0.80;;;;;;;;;;5000083;28;20179;-71
2022/06/21 09:23:21;;;;;;;2.40;0.90;;;;;;;;;;5007423;28;20885;-71
2022/06/21 09:26:12;;;;;;;3.40;0.75;;;;;;;;;;5008891;28;20182;-67
2022/06/21 09:28:43;;;;;;;6.57;0.80;;;;;;;;;;4995586;28;20191;-69
2022/06/21 09:31:27;;;;;;;3.80;1.00;;;;;;;;;;4998447;28;20744;-70
2022/06/21 09:33:59;;;;;;;4.82;1.10;;;;;;;;;;4990419;28;20306;-71
2022/06/21 09:36:58;;;;;;;4.53;1.20;;;;;;;;;;5004667;28;20186;-71
2022/06/21 09:39:31;;;;;;;4.55;1.17;;;;;;;;;;4999686;28;20225;-69
2022/06/21 09:42:14;;;;;;;5.70;0.93;;;;;;;;;;5009634;28;20209;-71
2022/06/21 09:45:16;;;;;;;1.40;0.63;;;;;;;;;;5006176;28;20206;-70
2022/06/21 09:48:08;;;;;;;3.42;0.70;;;;;;;;;;5002672;28;20182;-71
2022/06/21 09:51:14;;;;;;;3.22;0.95;;;;;;;;;;4998755;28;20182;-66
2022/06/21 09:54:04;;;;;;;2.50;0.98;;;;;;;;;;4998899;28;20182;-71
2022/06/21 09:56:49;;;;;;;3.60;0.70;;;;;;;;;;5013016;28;20205;-70
2022/06/21 09:59:28;;;;;;;7.03;1.20;;;;;;;;;;5000573;28;20269;-69
2022/06/21 10:02:14;;;;;;;6.03;1.17;;;;;;;;;;5009473;28;20182;-71
2022/06/21 10:05:04;;;;;;;5.68;1.05;;;;;;;;;;5011742;28;20178;-69
2022/06/21 10:07:53;;;;;;;3.58;1.00;;;;;;;;;;5011339;28;20182;-66
2022/06/21 10:10:40;;;;;;;2.03;0.95;;;;;;;;;;5005190;28;20491;-68
2022/06/21 10:13:41;;;;;;;3.05;1.05;;;;;;;;;;5008043;28;20626;-69
2022/06/21 10:16:26;;;;;;;6.20;1.10;;;;;;;;;;5009428;28;20603;-70
2022/06/21 10:19:11;;;;;;;2.65;0.90;;;;;;;;;;5010793;28;20182;-70
2022/06/21 10:21:48;;;;;;;3.13;0.85;;;;;;;;;;5012224;28;20179;-65
2022/06/21 10:24:49;;;;;;;3.33;0.88;;;;;;;;;;5001319;28;20225;-69
2022/06/21 10:27:33;;;;;;;2.55;0.90;;;;;;;;;;5000626;28;20690;-68
2022/06/21 10:30:32;;;;;;;3.47;1.00;;;;;;;;;;5004295;28;20598;-64
2022/06/21 10:33:17;;;;;;;2.72;0.82;;;;;;;;;;5005531;28;20264;-68
2022/06/21 10:35:57;;;;;;;3.78;1.10;;;;;;;;;;5009709;28;20182;-68
2022/06/21 10:38:45;;;;;;;4.22;1.05;;;;;;;;;;5010550;28;20505;-65
2022/06/21 10:41:19;;;;;;;6.47;1.08;;;;;;;;;;5004652;28;20179;-69
2022/06/21 10:44:23;;;;;;;5.45;1.40;;;;;;;;;;5000627;28;20206;-70
2022/06/21 10:46:58;;;;;;;5.00;1.00;;;;;;;;;;5000874;28;20187;-69
2022/06/21 10:49:50;;;;;;;1.95;0.70;;;;;;;;;;4993429;28;20602;-70
2022/06/21 10:52:41;;;;;;;4.47;0.90;;;;;;;;;;5005307;28;20203;-71
2022/06/21 10:55:44;;;;;;;2.33;1.20;;;;;;;;;;5007862;28;20193;-68
2022/06/21 10:58:52;;;;;;;3.70;1.20;;;;;;;;;;5005733;28;20185;-71
2022/06/21 11:01:48;;;;;;;2.25;0.70;;;;;;;;;;5001379;28;20186;-70
2022/06/21 11:04:33;;;;;;;5.93;0.80;;;;;;;;;;5002463;28;20569;-71
2022/06/21 11:07:15;;;;;;;4.35;0.80;;;;;;;;;;5005882;28;20183;-71
2022/06/21 11:10:00;;;;;;;4.82;0.70;;;;;;;;;;4997622;28;20175;-71
2022/06/21 11:12:53;;;;;;;3.88;0.73;;;;;;;;;;5008453;28;20845;-71
2022/06/21 11:15:27;;;;;;;3.47;0.77;;;;;;;;;;4995546;28;20500;-71
2022/06/21 11:18:32;;;;;;;4.32;0.80;;;;;;;;;;5001045;28;20183;-70
2022/06/21 11:21:22;;;;;;;2.10;0.55;;;;;;;;;;5005893;28;20194;-71
2022/06/21 11:24:11;;;;;;;1.80;0.63;;;;;;;;;;5003405;28;20185;-71
2022/06/21 11:26:52;;;;;;;4.10;1.02;;;;;;;;;;4999854;28;20254;-70
2022/06/21 11:30:01;;;;;;;5.53;0.80;;;;;;;;;;5005334;28;20175;-70
2022/06/21 11:32:32;;;;;;;1.35;0.80;;;;;;;;;;4985509;28;20234;-70
2022/06/21 11:35:07;;;;;;;5.25;1.00;;;;;;;;;;5005175;28;20210;-70
2022/06/21 11:38:03;;;;;;;7.40;0.90;;;;;;;;;;5010067;28;20527;-71
2022/06/21 11:44:28;;;;;;;2.20;0.88;;;;;;;;;;4949279;29;20183;-70
2022/06/21 11:47:14;;;;;;;4.28;1.20;;;;;;;;;;4943784;29;20541;-71
2022/06/21 11:50:10;;;;;;;1.80;0.70;;;;;;;;;;4999275;28;20306;-70
2022/06/21 11:52:53;;;;;;;5.07;1.20;;;;;;;;;;5009394;28;20195;-71
2022/06/21 11:55:35;;;;;;;2.92;1.00;;;;;;;;;;5020530;28;20568;-70
2022/06/21 11:58:23;;;;;;;2.80;0.90;;;;;;;;;;5010708;28;20182;-66
2022/06/21 12:00:53;;;;;;;4.18;1.05;;;;;;;;;;4998589;28;20182;-70
2022/06/21 12:03:50;;;;;;;1.40;0.60;;;;;;;;;;5009556;28;20186;-70
2022/06/21 12:06:29;;;;;;;3.65;0.90;;;;;;;;;;4996027;28;20194;-71
2022/06/21 12:09:27;;;;;;;2.65;0.70;;;;;;;;;;5009980;28;20225;-71
2022/06/21 12:12:19;;;;;;;3.60;0.63;;;;;;;;;;4993605;28;20207;-70
2022/06/21 12:15:13;;;;;;;1.73;0.50;;;;;;;;;;4999726;28;20179;-70
2022/06/21 12:17:52;;;;;;;2.90;0.70;;;;;;;;;;5004874;28;20187;-70
2022/06/21 12:20:23;;;;;;;2.13;0.70;;;;;;;;;;5009678;28;20174;-71
2022/06/21 12:23:08;;;;;;;1.63;0.65;;;;;;;;;;5007245;28;20236;-70
2022/06/21 12:25:34;;;;;;;3.50;0.63;;;;;;;;;;5000380;28;20190;-68
2022/06/21 12:28:00;;;;;;;2.25;0.85;;;;;;;;;;4995710;28;20226;-70
2022/06/21 12:30:28;;;;;;;1.92;0.52;;;;;;;;;;5010136;28;20250;-70
2022/06/21 12:32:59;;;;;;;1.77;0.60;;;;;;;;;;5007083;28;20206;-70
2022/06/21 12:35:38;;;;;;;2.55;0.65;;;;;;;;;;5002429;28;20628;-70
2022/06/21 12:38:06;;;;;;;2.25;0.80;;;;;;;;;;5003050;28;20178;-70
2022/06/21 12:40:37;;;;;;;3.47;0.70;;;;;;;;;;5005655;28;20265;-71
2022/06/21 12:43:39;;;;;;;2.85;0.60;;;;;;;;;;5004824;28;20235;-72
2022/06/21 12:46:30;;;;;;;2.42;0.70;;;;;;;;;;5011340;28;20685;-71
2022/06/21 12:49:26;;;;;;;3.72;0.80;;;;;;;;;;5007597;28;20654;-71
2022/06/21 12:52:02;;;;;;;4.30;0.95;;;;;;;;;;5009141;28;20202;-71
2022/06/21 12:54:51;;;;;;;2.80;0.90;;;;;;;;;;5003164;28;20246;-69
2022/06/21 12:57:39;;;;;;;3.42;0.85;;;;;;;;;;5004292;28;20187;-69
2022/06/21 13:00:11;;;;;;;3.38;0.77;;;;;;;;;;5027031;28;20170;-68
2022/06/21 13:02:51;;;;;;;2.97;0.85;;;;;;;;;;5008827;28;20259;-70
2022/06/21 13:05:53;;;;;;;2.20;0.70;;;;;;;;;;5009173;28;20178;-71
2022/06/21 13:08:39;;;;;;;2.20;1.00;;;;;;;;;;5008629;28;20182;-71
2022/06/21 13:11:22;;;;;;;5.63;0.70;;;;;;;;;;5004916;28;20202;-71
2022/06/21 13:13:59;;;;;;;1.95;0.60;;;;;;;;;;5008094;28;20187;-69
2022/06/21 13:16:57;;;;;;;2.88;0.70;;;;;;;;;;5006668;28;20550;-71
2022/06/21 13:20:00;;;;;;;3.38;0.73;;;;;;;;;;5003380;28;20249;-67
2022/06/21 13:22:47;;;;;;;1.90;1.23;;;;;;;;;;5009009;28;20186;-69
2022/06/21 13:25:54;;;;;;;3.15;0.90;;;;;;;;;;5002345;28;20193;-69
2022/06/21 13:28:41;;;;;;;3.70;0.63;;;;;;;;;;4958562;28;20718;-69
2022/06/21 13:31:12;;;;;;;2.38;0.90;;;;;;;;;;5017966;28;20681;-70
2022/06/21 13:33:38;;;;;;;2.00;0.70;;;;;;;;;;5004513;28;20643;-70
2022/06/21 13:36:25;;;;;;;2.53;0.70;;;;;;;;;;5009138;28;20194;-69
2022/06/21 13:39:17;;;;;;;2.75;0.80;;;;;;;;;;5013147;28;20191;-71
2022/06/21 13:44:51;;;;;;;4.18;0.80;;;;;;;;;;4994861;28;20686;-70
2022/06/21 13:47:30;;;;;;;2.35;0.65;;;;;;;;;;5007851;28;20179;-69
2022/06/21 13:50:06;;;;;;;2.08;0.90;;;;;;;;;;5007174;28;20266;-69
2022/06/21 13:52:42;;;;;;;2.70;0.90;;;;;;;;;;5005640;28;20678;-69
2022/06/21 13:55:31;;;;;;;1.23;0.70;;;;;;;;;;5010888;28;20214;-70
2022/06/21 13:58:08;;;;;;;1.80;0.80;;;;;;;;;;4975708;28;20199;-70
2022/06/21 14:00:41;;;;;;;3.33;0.82;;;;;;;;;;5004758;28;20179;-70
2022/06/21 14:03:21;;;;;;;1.48;0.82;;;;;;;;;;5020697;28;20179;-70
2022/06/21 14:06:26;;;;;;;2.40;0.82;;;;;;;;;;5031721;28;20182;-70
2022/06/21 14:09:01;;;;;;;4.05;0.85;;;;;;;;;;5008975;28;20643;-71
2022/06/21 14:11:27;;;;;;;2.08;0.90;;;;;;;;;;5007745;28;20194;-70
2022/06/21 14:13:55;;;;;;;4.72;0.95;;;;;;;;;;5004066;28;20195;-70
2022/06/21 14:16:27;;;;;;;1.13;0.60;;;;;;;;;;5005197;28;20663;-70
2022/06/21 14:19:05;;;;;;;4.07;0.93;;;;;;;;;;5005102;28;20182;-70
2022/06/21 14:21:36;;;;;;;3.10;1.17;;;;;;;;;;5015161;28;20186;-69
2022/06/21 14:24:13;;;;;;;4.97;1.13;;;;;;;;;;5006241;28;20184;-70
2022/06/21 14:26:47;;;;;;;2.25;0.70;;;;;;;;;;5008857;28;20316;-70
2022/06/21 14:29:31;;;;;;;5.40;1.08;;;;;;;;;;5005954;28;20182;-71
2022/06/21 14:32:22;;;;;;;2.63;0.90;;;;;;;;;;5007254;28;20226;-72
2022/06/21 14:35:02;;;;;;;3.25;0.90;;;;;;;;;;5005480;28;20211;-71
2022/06/21 14:37:49;;;;;;;2.78;0.85;;;;;;;;;;5011294;28;20639;-71
2022/06/21 14:40:43;;;;;;;3.90;0.90;;;;;;;;;;5009335;28;20678;-69
2022/06/21 14:43:26;;;;;;;3.10;1.10;;;;;;;;;;5008870;28;20179;-71
2022/06/21 14:46:11;;;;;;;2.88;0.88;;;;;;;;;;5024513;28;20271;-70
2022/06/21 14:48:45;;;;;;;2.72;0.80;;;;;;;;;;5006434;28;20186;-70
2022/06/21 14:51:22;;;;;;;4.22;0.95;;;;;;;;;;5007654;28;20738;-71
2022/06/21 14:53:53;;;;;;;2.08;0.88;;;;;;;;;;5008492;28;20183;-71
2022/06/21 14:56:38;;;;;;;1.83;0.80;;;;;;;;;;5005281;28;20267;-70
2022/06/21 14:59:32;;;;;;;3.20;0.73;;;;;;;;;;5006580;28;20187;-70
2022/06/21 15:02:39;;;;;;;3.90;1.00;;;;;;;;;;5000113;28;20190;-71
2022/06/21 15:05:35;;;;;;;2.25;0.80;;;;;;;;;;4942906;29;20756;-71
2022/06/21 15:08:25;;;;;;;0.93;0.80;;;;;;;;;;4940871;29;20316;-71
2022/06/21 15:11:10;;;;;;;3.28;1.00;;;;;;;;;;4995093;28;20290;-70
2022/06/21 15:14:00;;;;;;;1.75;0.98;;;;;;;;;;5038999;28;20245;-71
2022/06/21 15:16:42;;;;;;;6.38;1.33;;;;;;;;;;5005405;28;20245;-71
2022/06/21 15:21:58;;;;;;;3.67;0.90;;;;;;;;;;5003605;28;20194;-71
2022/06/21 15:24:27;;;;;;;3.10;0.75;;;;;;;;;;5019491;28;20672;-71
2022/06/21 15:27:00;;;;;;;3.05;1.33;;;;;;;;;;5009953;28;20700;-71
2022/06/21 15:29:33;;;;;;;3.15;1.10;;;;;;;;;;5007396;28;20281;-71
2022/06/21 15:32:21;;;;;;;2.63;0.82;;;;;;;;;;5006366;28;20297;-71
2022/06/21 15:34:50;;;;;;;2.42;1.00;;;;;;;;;;5013200;28;20233;-72
2022/06/21 15:37:26;;;;;;;2.83;1.25;;;;;;;;;;5015272;28;20221;-70
2022/06/21 15:39:56;;;;;;;3.15;0.98;;;;;;;;;;5036942;28;20198;-71
2022/06/21 15:42:32;;;;;;;3.70;1.23;;;;;;;;;;5009742;28;20174;-71
2022/06/21 15:45:16;;;;;;;4.43;0.80;;;;;;;;;;5008876;28;20552;-72
2022/06/21 15:50:39;;;;;;;2.90;1.05;;;;;;;;;;5009660;28;20186;-71
2022/06/21 15:53:22;;;;;;;3.13;0.88;;;;;;;;;;5009617;28;20198;-71
2022/06/21 15:56:06;;;;;;;3.70;1.00;;;;;;;;;;5003866;28;20175;-71
2022/06/21 15:59:05;;;;;;;3.97;0.82;;;;;;;;;;5006967;28;20206;-71
2022/06/21 16:01:34;;;;;;;2.55;0.85;;;;;;;;;;5005204;28;20647;-72
2022/06/21 16:04:33;;;;;;;4.85;1.02;;;;;;;;;;5008141;28;20187;-72
2022/06/21 16:07:07;;;;;;;3.60;0.90;;;;;;;;;;5007815;28;20602;-72
2022/06/21 16:09:43;;;;;;;2.03;0.65;;;;;;;;;;5007154;28;20178;-72
2022/06/21 16:12:14;;;;;;;3.67;0.93;;;;;;;;;;5007437;28;20245;-72